createdAt,value
2023-01-28T00:01:13.342Z,72.64
2023-01-28T00:03:40.168Z,71.56
2023-01-28T00:06:09.556Z,72.11
2023-01-28T00:08:36.409Z,71.95
2023-01-28T00:11:04.836Z,72.21
2023-01-28T00:13:33.043Z,71.93
2023-01-28T00:16:01.911Z,71.90
2023-01-28T00:18:29.364Z,71.35
2023-01-28T00:21:06.403Z,71.93
2023-01-28T00:23:35.368Z,72.61
2023-01-28T00:26:05.090Z,73.27
2023-01-28T00:28:31.870Z,73.01
2023-01-28T00:30:58.533Z,73.28
2023-01-28T00:33:25.430Z,73.71
2023-01-28T00:36:02.349Z,73.86
2023-01-28T00:38:29.257Z,75.35
2023-01-28T00:40:55.994Z,75.72
2023-01-28T00:43:22.612Z,75.18
2023-01-28T00:45:50.335Z,74.24
2023-01-28T00:48:17.226Z,74.21
2023-01-28T00:50:45.684Z,73.87
2023-01-28T00:53:12.218Z,73.16
2023-01-28T00:55:38.973Z,73.40
2023-01-28T00:58:05.606Z,73.27
2023-01-28T01:00:32.222Z,73.45
2023-01-28T01:02:59.439Z,73.62
2023-01-28T01:05:26.065Z,73.01
2023-01-28T01:07:52.592Z,73.43
2023-01-28T01:10:23.269Z,75.95
2023-01-28T01:12:50.739Z,78.29
2023-01-28T01:15:18.027Z,77.58
2023-01-28T01:17:49.032Z,77.22
2023-01-28T01:20:24.484Z,76.52
2023-01-28T01:22:51.303Z,78.51
2023-01-28T01:25:18.731Z,78.94
2023-01-28T01:27:49.485Z,79.42
2023-01-28T01:30:16.939Z,80.03
2023-01-28T01:32:43.590Z,80.24
2023-01-28T01:35:10.839Z,79.82
2023-01-28T01:37:37.706Z,80.35
2023-01-28T01:40:05.642Z,80.20
2023-01-28T01:42:35.027Z,82.04
2023-01-28T01:45:13.461Z,80.35
2023-01-28T01:48:16.150Z,80.12
2023-01-28T01:50:51.321Z,80.20
2023-01-28T01:53:20.944Z,79.57
2023-01-28T01:55:50.026Z,79.65
2023-01-28T01:58:21.654Z,79.20
2023-01-28T02:00:48.358Z,79.08
2023-01-28T02:03:19.507Z,78.74
2023-01-28T02:05:46.185Z,79.99
2023-01-28T02:08:21.709Z,79.33
2023-01-28T02:10:54.115Z,79.16
2023-01-28T02:13:25.441Z,79.04
2023-01-28T02:15:52.724Z,79.31
2023-01-28T02:18:19.859Z,78.77
2023-01-28T02:21:21.637Z,78.71
2023-01-28T02:24:06.347Z,78.29
2023-01-28T02:26:35.601Z,77.14
2023-01-28T02:29:36.311Z,76.32
2023-01-28T02:32:09.990Z,76.92
2023-01-28T02:34:43.255Z,76.89
2023-01-28T02:37:18.836Z,76.61
2023-01-28T02:39:52.468Z,75.98
2023-01-28T02:42:23.758Z,75.22
2023-01-28T02:44:50.330Z,75.54
2023-01-28T02:47:35.596Z,74.86
2023-01-28T02:50:09.732Z,75.54
2023-01-28T02:53:13.440Z,74.76
2023-01-28T02:55:49.909Z,74.04
2023-01-28T02:58:32.030Z,74.78
2023-01-28T03:01:36.905Z,74.68
2023-01-28T03:04:23.629Z,74.31
2023-01-28T03:06:54.850Z,74.04
2023-01-28T03:09:24.743Z,73.84
2023-01-28T03:12:18.560Z,73.37
2023-01-28T03:15:09.441Z,73.27
2023-01-28T03:18:00.920Z,72.87
2023-01-28T03:20:52.855Z,72.88
2023-01-28T03:23:46.240Z,74.00
2023-01-28T03:26:33.940Z,72.63
2023-01-28T03:29:27.433Z,72.90
2023-01-28T03:32:13.819Z,72.87
2023-01-28T03:34:59.202Z,73.03
2023-01-28T03:37:28.487Z,73.03
2023-01-28T03:39:58.196Z,72.96
2023-01-28T03:42:24.765Z,73.86
2023-01-28T03:44:53.888Z,73.40
2023-01-28T03:47:25.571Z,73.98
2023-01-28T03:49:54.465Z,74.34
2023-01-28T03:52:30.415Z,74.15
2023-01-28T03:54:57.096Z,73.79
2023-01-28T03:57:26.008Z,74.35
2023-01-28T03:59:55.412Z,74.26
2023-01-28T04:02:23.143Z,76.01
2023-01-28T04:04:50.422Z,75.86
2023-01-28T04:07:17.887Z,75.53
2023-01-28T04:09:44.758Z,78.22
2023-01-28T04:12:12.125Z,76.60
2023-01-28T04:14:40.276Z,77.11
2023-01-28T04:17:12.942Z,76.85
2023-01-28T04:19:40.367Z,77.49
2023-01-28T04:22:10.828Z,77.42
2023-01-28T04:24:37.377Z,77.13
2023-01-28T04:27:03.916Z,77.79
2023-01-28T04:29:31.759Z,80.59
2023-01-28T04:31:58.355Z,79.23
2023-01-28T04:34:24.944Z,80.15
2023-01-28T04:36:51.573Z,80.33
2023-01-28T04:39:18.320Z,83.14
2023-01-28T04:41:44.863Z,81.47
2023-01-28T04:44:11.378Z,83.82
2023-01-28T04:46:37.945Z,84.13
2023-01-28T04:49:04.582Z,83.12
2023-01-28T04:51:31.210Z,84.89
2023-01-28T04:54:00.288Z,85.82
2023-01-28T04:56:26.953Z,83.82
2023-01-28T04:58:53.545Z,85.97
2023-01-28T05:01:20.211Z,84.48
2023-01-28T05:03:46.761Z,85.24
2023-01-28T05:06:13.309Z,84.47
2023-01-28T05:08:40.159Z,84.50
2023-01-28T05:11:06.712Z,84.16
2023-01-28T05:13:33.397Z,82.86
2023-01-28T05:16:02.507Z,84.31
2023-01-28T05:18:29.116Z,85.03
2023-01-28T05:20:55.714Z,83.33
2023-01-28T05:23:22.520Z,82.97
2023-01-28T05:25:49.584Z,82.84
2023-01-28T05:28:16.788Z,83.65
2023-01-28T05:30:43.486Z,83.57
2023-01-28T05:33:10.026Z,83.61
2023-01-28T05:35:36.805Z,82.78
2023-01-28T05:38:04.090Z,83.67
2023-01-28T05:40:30.644Z,84.11
2023-01-28T05:42:57.388Z,82.81
2023-01-28T05:45:24.023Z,84.00
2023-01-28T05:47:50.666Z,83.41
2023-01-28T05:50:17.590Z,83.60
2023-01-28T05:52:44.758Z,84.09
2023-01-28T05:55:11.609Z,83.99
2023-01-28T05:57:38.191Z,84.74
2023-01-28T06:00:05.777Z,84.05
2023-01-28T06:02:32.624Z,84.17
2023-01-28T06:04:59.927Z,85.40
2023-01-28T06:07:26.604Z,83.28
2023-01-28T06:09:53.137Z,83.76
2023-01-28T06:12:19.623Z,83.77
2023-01-28T06:14:46.113Z,84.26
2023-01-28T06:17:15.725Z,82.66
2023-01-28T06:19:42.339Z,82.73
2023-01-28T06:22:08.913Z,82.83
2023-01-28T06:24:35.523Z,82.19
2023-01-28T06:27:02.284Z,82.35
2023-01-28T06:29:29.147Z,81.68
2023-01-28T06:31:55.801Z,81.07
2023-01-28T06:34:22.413Z,81.36
2023-01-28T06:36:50.950Z,80.54
2023-01-28T06:39:17.509Z,80.66
2023-01-28T06:41:44.114Z,80.65
2023-01-28T06:44:10.657Z,81.02
2023-01-28T06:46:37.241Z,81.12
2023-01-28T06:49:04.017Z,81.79
2023-01-28T06:51:37.856Z,81.37
2023-01-28T06:54:04.593Z,81.59
2023-01-28T06:56:31.611Z,79.99
2023-01-28T06:58:58.128Z,80.48
2023-01-28T07:01:25.002Z,80.91
2023-01-28T07:03:51.770Z,80.82
2023-01-28T07:06:18.330Z,80.26
2023-01-28T07:08:45.011Z,79.68
2023-01-28T07:11:11.589Z,79.80
2023-01-28T07:13:38.307Z,79.62
2023-01-28T07:16:05.204Z,79.00
2023-01-28T07:18:31.812Z,78.42
2023-01-28T07:20:58.479Z,79.18
2023-01-28T07:23:26.092Z,78.58
2023-01-28T07:25:54.810Z,78.10
2023-01-28T07:28:21.688Z,77.75
2023-01-28T07:30:52.479Z,76.63
2023-01-28T07:33:19.949Z,77.91
2023-01-28T07:35:48.758Z,76.50
2023-01-28T07:38:15.491Z,76.77
2023-01-28T07:40:47.191Z,76.30
2023-01-28T07:43:14.368Z,74.25
2023-01-28T07:45:43.648Z,74.06
2023-01-28T07:48:12.463Z,74.22
2023-01-28T07:50:39.728Z,74.04
2023-01-28T07:53:08.125Z,73.96
2023-01-28T07:55:38.292Z,73.20
2023-01-28T07:58:06.832Z,72.52
2023-01-28T08:00:37.779Z,72.98
2023-01-28T08:03:07.338Z,72.89
2023-01-28T08:05:40.830Z,73.42
2023-01-28T08:08:10.692Z,72.23
2023-01-28T08:10:37.749Z,73.38
2023-01-28T08:13:04.922Z,73.90
2023-01-28T08:15:34.073Z,74.22
2023-01-28T08:18:07.609Z,74.62
2023-01-28T08:20:34.340Z,75.90
2023-01-28T08:23:18.587Z,74.43
2023-01-28T08:25:46.384Z,75.34
2023-01-28T08:28:14.278Z,75.19
2023-01-28T08:30:41.220Z,75.44
2023-01-28T08:33:09.339Z,75.77
2023-01-28T08:35:40.463Z,76.95
2023-01-28T08:38:11.884Z,76.76
2023-01-28T08:40:38.589Z,76.62
2023-01-28T08:43:05.521Z,76.69
2023-01-28T08:45:32.617Z,77.41
2023-01-28T08:48:00.383Z,75.25
2023-01-28T08:50:35.640Z,75.91
2023-01-28T08:53:04.773Z,75.73
2023-01-28T08:55:31.762Z,75.20
2023-01-28T08:58:02.416Z,75.83
2023-01-28T09:00:33.701Z,75.37
2023-01-28T09:03:00.252Z,74.52
2023-01-28T09:05:26.902Z,74.61
2023-01-28T09:07:53.475Z,74.48
2023-01-28T09:10:22.746Z,74.46
2023-01-28T09:12:49.387Z,74.97
2023-01-28T09:15:16.075Z,73.98
2023-01-28T09:17:42.612Z,75.22
2023-01-28T09:20:09.744Z,75.09
2023-01-28T09:22:39.236Z,75.14
2023-01-28T09:25:08.915Z,75.43
2023-01-28T09:27:35.508Z,75.66
2023-01-28T09:30:04.504Z,74.75
2023-01-28T09:32:31.380Z,74.55
2023-01-28T09:34:58.095Z,75.79
2023-01-28T09:37:27.198Z,75.48
2023-01-28T09:39:57.094Z,74.23
2023-01-28T09:42:48.607Z,74.11
2023-01-28T09:45:16.282Z,75.47
2023-01-28T09:47:54.545Z,74.00
2023-01-28T09:50:33.041Z,74.25
2023-01-28T09:53:10.739Z,74.90
2023-01-28T09:55:44.598Z,74.64
2023-01-28T09:58:13.582Z,74.44
2023-01-28T10:00:56.038Z,74.33
2023-01-28T10:03:59.985Z,74.75
2023-01-28T10:06:41.334Z,75.03
2023-01-28T10:09:44.145Z,73.13
2023-01-28T10:12:33.751Z,73.52
2023-01-28T10:15:03.155Z,74.01
2023-01-28T10:17:41.373Z,74.45
2023-01-28T10:20:17.301Z,73.09
2023-01-28T10:23:05.593Z,72.83
2023-01-28T10:25:33.526Z,72.75
2023-01-28T10:28:09.521Z,73.15
2023-01-28T10:30:41.674Z,73.32
2023-01-28T10:33:19.045Z,74.77
2023-01-28T10:35:45.649Z,73.98
2023-01-28T10:38:18.629Z,74.80
2023-01-28T10:40:48.243Z,74.89
2023-01-28T10:43:26.581Z,75.33
2023-01-28T10:46:21.293Z,75.98
2023-01-28T10:49:05.229Z,76.74
2023-01-28T10:51:36.887Z,76.04
2023-01-28T10:54:17.506Z,75.71
2023-01-28T10:56:49.259Z,75.76
2023-01-28T10:59:33.052Z,76.24
2023-01-28T11:02:22.724Z,75.56
2023-01-28T11:05:01.880Z,76.04
2023-01-28T11:07:28.743Z,75.94
2023-01-28T11:09:55.325Z,76.29
2023-01-28T11:12:32.800Z,76.05
2023-01-28T11:15:04.773Z,76.23
2023-01-28T11:17:38.649Z,75.58
2023-01-28T11:20:37.616Z,74.72
2023-01-28T11:23:04.709Z,74.41
2023-01-28T11:25:34.219Z,73.54
2023-01-28T11:28:19.483Z,74.02
2023-01-28T11:30:53.140Z,73.99
2023-01-28T11:33:23.848Z,73.03
2023-01-28T11:35:56.410Z,73.49
2023-01-28T11:38:26.403Z,73.12
2023-01-28T11:40:58.781Z,73.11
2023-01-28T11:43:29.859Z,72.91
2023-01-28T11:46:18.495Z,72.74
2023-01-28T11:49:06.501Z,72.98
2023-01-28T11:52:06.552Z,72.30
2023-01-28T11:54:38.893Z,72.03
2023-01-28T11:57:24.235Z,72.75
2023-01-28T12:00:11.519Z,72.20
2023-01-28T12:02:47.961Z,70.92
2023-01-28T12:05:17.747Z,70.06
2023-01-28T12:08:07.631Z,69.19
2023-01-28T12:10:58.491Z,69.31
2023-01-28T12:13:35.578Z,67.58
2023-01-28T12:16:23.633Z,68.79
2023-01-28T12:19:03.276Z,69.37
2023-01-28T12:21:46.971Z,69.21
2023-01-28T12:24:52.413Z,68.43
2023-01-28T12:27:21.003Z,67.95
2023-01-28T12:29:53.254Z,68.50
2023-01-28T12:32:46.111Z,68.88
2023-01-28T12:35:24.370Z,68.56
2023-01-28T12:38:03.817Z,68.67
2023-01-28T12:40:47.184Z,68.14
2023-01-28T12:43:20.686Z,68.93
2023-01-28T12:45:59.816Z,68.56
2023-01-28T12:48:39.972Z,67.69
2023-01-28T12:51:18.842Z,67.99
2023-01-28T12:54:35.120Z,67.03
2023-01-28T12:57:03.123Z,67.79
2023-01-28T12:59:45.150Z,68.66
2023-01-28T13:02:11.696Z,67.72
2023-01-28T13:04:48.098Z,67.11
2023-01-28T13:07:21.503Z,67.34
2023-01-28T13:10:10.973Z,66.68
2023-01-28T13:12:40.340Z,67.28
2023-01-28T13:15:12.486Z,66.81
2023-01-28T13:17:39.192Z,66.94
2023-01-28T13:20:30.718Z,66.82
2023-01-28T13:23:02.358Z,66.03
2023-01-28T13:25:29.253Z,65.82
2023-01-28T13:28:03.532Z,66.20
2023-01-28T13:30:33.124Z,65.80
2023-01-28T13:33:03.410Z,66.17
2023-01-28T13:35:41.098Z,65.92
2023-01-28T13:38:21.548Z,65.79
2023-01-28T13:41:00.728Z,66.81
2023-01-28T13:43:34.927Z,66.96
2023-01-28T13:46:08.531Z,66.90
2023-01-28T13:48:47.560Z,67.74
2023-01-28T13:51:23.987Z,67.64
2023-01-28T13:54:07.341Z,67.26
2023-01-28T13:56:58.810Z,67.19
2023-01-28T13:59:44.729Z,67.71
2023-01-28T14:02:30.540Z,68.22
2023-01-28T14:05:25.890Z,68.39
2023-01-28T14:08:18.221Z,67.85
2023-01-28T14:11:11.775Z,67.81
2023-01-28T14:13:46.993Z,67.82
2023-01-28T14:16:25.293Z,67.19
2023-01-28T14:18:59.565Z,67.49
2023-01-28T14:21:27.988Z,66.80
2023-01-28T14:23:57.448Z,67.32
2023-01-28T14:26:32.911Z,66.77
2023-01-28T14:29:13.348Z,67.05
2023-01-28T14:31:40.231Z,66.29
2023-01-28T14:34:06.794Z,65.70
2023-01-28T14:36:37.981Z,65.50
2023-01-28T14:39:04.756Z,65.13
2023-01-28T14:41:31.462Z,65.07
2023-01-28T14:43:58.498Z,64.81
2023-01-28T14:47:18.011Z,65.17
2023-01-28T14:49:53.672Z,64.61
2023-01-28T14:52:53.957Z,64.29
2023-01-28T14:55:54.598Z,64.89
2023-01-28T14:58:33.511Z,64.08
2023-01-28T15:01:02.366Z,64.03
2023-01-28T15:03:30.856Z,64.52
2023-01-28T15:06:06.611Z,63.80
2023-01-28T15:08:33.406Z,64.88
2023-01-28T15:11:01.688Z,64.11
2023-01-28T15:13:37.019Z,64.66
2023-01-28T15:16:04.924Z,65.44
2023-01-28T15:18:35.922Z,64.80
2023-01-28T15:21:03.351Z,65.33
2023-01-28T15:23:35.751Z,65.09
2023-01-28T15:26:08.195Z,64.73
2023-01-28T15:28:38.360Z,65.15
2023-01-28T15:31:05.375Z,65.38
2023-01-28T15:33:32.272Z,65.75
2023-01-28T15:35:59.444Z,66.35
2023-01-28T15:38:31.227Z,65.99
2023-01-28T15:41:02.265Z,65.81
2023-01-28T15:43:36.819Z,65.02
2023-01-28T15:46:13.629Z,65.85
2023-01-28T15:48:44.396Z,65.97
2023-01-28T15:51:21.963Z,66.23
2023-01-28T15:53:52.127Z,66.31
2023-01-28T15:56:27.814Z,67.34
2023-01-28T15:58:56.203Z,66.90
2023-01-28T16:01:23.992Z,67.10
2023-01-28T16:04:05.535Z,67.34
2023-01-28T16:06:42.780Z,67.28
2023-01-28T16:09:27.489Z,67.16
2023-01-28T16:11:54.192Z,67.27
2023-01-28T16:14:35.232Z,67.76
2023-01-28T16:17:02.071Z,67.06
2023-01-28T16:19:40.114Z,66.73
2023-01-28T16:22:08.462Z,67.20
2023-01-28T16:24:36.544Z,67.62
2023-01-28T16:27:07.325Z,67.45
2023-01-28T16:29:34.256Z,67.37
2023-01-28T16:32:03.174Z,66.94
2023-01-28T16:34:29.837Z,67.92
2023-01-28T16:37:00.331Z,67.58
2023-01-28T16:39:27.151Z,66.95
2023-01-28T16:41:53.988Z,67.64
2023-01-28T16:44:21.639Z,66.47
2023-01-28T16:46:48.205Z,66.27
2023-01-28T16:49:14.832Z,66.72
2023-01-28T16:51:44.155Z,66.93
2023-01-28T16:54:16.141Z,67.32
2023-01-28T16:56:46.491Z,66.66
2023-01-28T16:59:14.997Z,66.91
2023-01-28T17:01:42.179Z,66.77
2023-01-28T17:04:12.804Z,66.32
2023-01-28T17:06:42.961Z,66.94
2023-01-28T17:09:11.172Z,67.45
2023-01-28T17:11:39.694Z,66.96
2023-01-28T17:14:06.562Z,66.85
2023-01-28T17:16:33.164Z,67.17
2023-01-28T17:18:59.713Z,67.07
2023-01-28T17:21:26.233Z,67.13
2023-01-28T17:23:52.981Z,67.49
2023-01-28T17:26:19.673Z,66.78
2023-01-28T17:28:51.814Z,67.72
2023-01-28T17:31:18.787Z,67.47
2023-01-28T17:33:45.398Z,67.27
2023-01-28T17:36:11.981Z,67.90
2023-01-28T17:38:38.921Z,67.52
2023-01-28T17:41:08.171Z,68.00
2023-01-28T17:43:35.046Z,68.24
2023-01-28T17:46:09.784Z,68.10
2023-01-28T17:48:36.537Z,67.91
2023-01-28T17:51:03.183Z,67.10
2023-01-28T17:53:29.925Z,67.95
2023-01-28T17:55:56.495Z,68.45
2023-01-28T17:58:23.117Z,67.11
2023-01-28T18:00:49.973Z,68.64
2023-01-28T18:03:19.699Z,68.00
2023-01-28T18:05:57.522Z,67.86
2023-01-28T18:08:24.221Z,67.93
2023-01-28T18:10:50.700Z,67.06
2023-01-28T18:13:17.424Z,67.41
2023-01-28T18:15:43.956Z,67.97
2023-01-28T18:18:13.413Z,68.05
2023-01-28T18:20:39.905Z,67.93
2023-01-28T18:23:06.615Z,67.65
2023-01-28T18:25:33.124Z,67.39
2023-01-28T18:27:59.771Z,67.85
2023-01-28T18:30:26.376Z,67.90
2023-01-28T18:32:55.548Z,67.52
2023-01-28T18:35:22.110Z,67.73
2023-01-28T18:37:48.612Z,68.00
2023-01-28T18:40:15.255Z,67.92
2023-01-28T18:42:41.767Z,67.59
2023-01-28T18:45:08.677Z,67.43
2023-01-28T18:47:35.302Z,67.61
2023-01-28T18:50:02.110Z,67.53
2023-01-28T18:52:28.778Z,68.02
2023-01-28T18:54:55.331Z,67.61
2023-01-28T18:57:21.848Z,67.93
2023-01-28T18:59:48.583Z,67.55
2023-01-28T19:02:16.463Z,67.71
2023-01-28T19:04:43.294Z,67.75
2023-01-28T19:07:11.833Z,67.99
2023-01-28T19:09:38.934Z,68.18
2023-01-28T19:12:05.801Z,67.38
2023-01-28T19:14:32.556Z,67.73
2023-01-28T19:16:59.357Z,68.10
2023-01-28T19:19:26.164Z,68.10
2023-01-28T19:21:53.545Z,67.36
2023-01-28T19:24:20.466Z,68.31
2023-01-28T19:26:47.431Z,68.11
2023-01-28T19:29:16.337Z,67.82
2023-01-28T19:31:45.457Z,68.34
2023-01-28T19:34:13.090Z,68.60
2023-01-28T19:36:41.271Z,68.22
2023-01-28T19:39:09.513Z,68.14
2023-01-28T19:41:36.802Z,67.72
2023-01-28T19:44:05.064Z,67.06
2023-01-28T19:46:32.207Z,66.82
2023-01-28T19:48:58.826Z,67.83
2023-01-28T19:51:25.445Z,66.51
2023-01-28T19:53:53.681Z,66.94
2023-01-28T19:56:22.533Z,66.84
2023-01-28T19:58:49.447Z,66.53
2023-01-28T20:01:21.600Z,66.21
2023-01-28T20:03:55.954Z,66.55
2023-01-28T20:06:29.484Z,66.33
2023-01-28T20:09:01.932Z,65.83
2023-01-28T20:11:30.981Z,66.23
2023-01-28T20:13:57.560Z,65.79
2023-01-28T20:16:34.721Z,64.90
2023-01-28T20:19:04.752Z,64.88
2023-01-28T20:21:32.917Z,65.68
2023-01-28T20:24:01.111Z,64.99
2023-01-28T20:26:31.979Z,65.88
2023-01-28T20:29:13.298Z,65.30
2023-01-28T20:31:42.362Z,64.56
2023-01-28T20:34:14.392Z,65.23
2023-01-28T20:36:40.962Z,65.25
2023-01-28T20:39:10.060Z,65.13
2023-01-28T20:41:37.261Z,64.37
2023-01-28T20:44:03.951Z,64.64
2023-01-28T20:46:33.068Z,64.72
2023-01-28T20:49:03.060Z,64.78
2023-01-28T20:51:31.556Z,64.88
2023-01-28T20:54:00.544Z,64.22
2023-01-28T20:56:29.945Z,64.09
2023-01-28T20:59:05.069Z,65.19
2023-01-28T21:01:33.961Z,64.00
2023-01-28T21:04:00.833Z,65.17
2023-01-28T21:06:28.274Z,64.42
2023-01-28T21:08:54.955Z,64.66
2023-01-28T21:11:22.959Z,64.99
2023-01-28T21:13:50.100Z,64.58
2023-01-28T21:16:17.307Z,64.01
2023-01-28T21:18:44.596Z,64.08
2023-01-28T21:21:22.775Z,64.44
2023-01-28T21:23:50.407Z,63.91
2023-01-28T21:26:17.469Z,63.86
2023-01-28T21:28:44.921Z,64.46
2023-01-28T21:31:18.440Z,64.00
2023-01-28T21:33:52.592Z,64.20
2023-01-28T21:36:19.888Z,64.17
2023-01-28T21:38:57.755Z,64.42
2023-01-28T21:41:24.619Z,64.08
2023-01-28T21:43:53.775Z,64.33
2023-01-28T21:46:21.882Z,64.08
2023-01-28T21:48:48.480Z,63.95
2023-01-28T21:51:33.759Z,63.43
2023-01-28T21:54:02.835Z,64.08
2023-01-28T21:56:32.181Z,63.90
2023-01-28T21:59:17.281Z,64.15
2023-01-28T22:01:44.863Z,63.62
2023-01-28T22:04:14.269Z,64.00
2023-01-28T22:06:45.355Z,63.98
2023-01-28T22:09:13.566Z,62.96
2023-01-28T22:11:41.732Z,63.50
2023-01-28T22:14:08.702Z,64.12
2023-01-28T22:16:35.901Z,63.42
2023-01-28T22:19:03.077Z,63.64
2023-01-28T22:21:29.673Z,64.03
2023-01-28T22:23:56.305Z,63.74
2023-01-28T22:26:23.319Z,63.17
2023-01-28T22:28:49.844Z,62.95
2023-01-28T22:31:16.851Z,62.81
2023-01-28T22:33:43.932Z,62.21
2023-01-28T22:36:15.896Z,62.73
2023-01-28T22:38:44.102Z,62.83
2023-01-28T22:41:19.301Z,63.12
2023-01-28T22:43:46.798Z,63.13
2023-01-28T22:46:13.545Z,63.16
2023-01-28T22:48:40.475Z,63.74
2023-01-28T22:51:10.557Z,63.30
2023-01-28T22:53:37.120Z,63.91
2023-01-28T22:56:03.838Z,63.40
2023-01-28T22:58:31.685Z,64.22
2023-01-28T23:00:58.449Z,63.84
2023-01-28T23:03:25.451Z,63.87
2023-01-28T23:05:57.081Z,64.34
2023-01-28T23:08:23.668Z,63.84
2023-01-28T23:10:53.388Z,64.06
2023-01-28T23:13:21.454Z,63.94
2023-01-28T23:16:08.316Z,63.94
2023-01-28T23:18:56.780Z,64.45
2023-01-28T23:21:44.390Z,63.61
2023-01-28T23:24:19.646Z,64.11
2023-01-28T23:26:54.916Z,64.03
2023-01-28T23:29:24.022Z,64.13
2023-01-28T23:32:04.592Z,63.88
2023-01-28T23:34:36.455Z,63.85
2023-01-28T23:37:04.867Z,63.66
2023-01-28T23:39:31.459Z,63.90
2023-01-28T23:41:58.165Z,64.08
2023-01-28T23:44:26.482Z,63.44
2023-01-28T23:46:54.275Z,64.22
2023-01-28T23:49:21.117Z,63.78
2023-01-28T23:51:47.746Z,63.92
2023-01-28T23:54:14.316Z,63.45
2023-01-28T23:56:40.899Z,63.85
2023-01-28T23:59:07.445Z,63.17
